Time;durP1;ratioP1;P1;durP2;ratioP2;P2;SDS_P1;SDS_P2;PMS_P1;PMS_P2;Temp;Humidity;BMP_temperature;BMP_pressure;BME280_temperature;BME280_humidity;BME280_pressure;Samples;Min_cycle;Max_cycle;Signal;HPM_P1;HPM_P2
2022/01/12 05:32:55;;;;;;;30.37;19.40;;;-2.00;99.90;;;;;;7386276;19;20365;-89
2022/01/12 05:35:33;;;;;;;27.52;17.60;;;-2.00;99.90;;;;;;7250575;19;2004564;-81
2022/01/12 06:12:28;;;;;;;30.83;18.05;;;-1.80;99.90;;;;;;7357452;19;20393;-91
2022/01/12 06:16:08;;;;;;;32.38;18.25;;;-1.80;99.90;;;;;;7328972;19;20320;-91
2022/01/12 06:56:21;;;;;;;21.30;14.07;;;-1.80;99.90;;;;;;7405349;19;20411;-93
2022/01/12 06:58:52;;;;;;;22.02;14.73;;;-1.80;99.90;;;;;;7405608;19;20320;-90
2022/01/12 07:01:18;;;;;;;24.45;14.70;;;-1.80;99.90;;;;;;7404410;19;20372;-88
2022/01/12 07:03:46;;;;;;;22.20;14.80;;;-1.80;99.90;;;;;;7406149;19;20361;-89
2022/01/12 07:06:12;;;;;;;20.93;15.10;;;-1.70;99.90;;;;;;7409584;19;20341;-91
2022/01/12 07:08:39;;;;;;;20.33;14.70;;;-1.70;99.90;;;;;;7408780;19;20372;-92
2022/01/12 07:11:07;;;;;;;17.67;13.05;;;-1.70;99.90;;;;;;7408019;19;20656;-92
2022/01/12 07:13:33;;;;;;;18.58;14.77;;;-1.60;99.90;;;;;;7405810;19;20414;-93
2022/01/12 07:15:59;;;;;;;20.75;14.95;;;-1.60;99.90;;;;;;7406415;19;20329;-93
2022/01/12 07:18:26;;;;;;;20.50;14.53;;;-1.60;99.90;;;;;;7402561;19;20344;-90
2022/01/12 07:20:52;;;;;;;19.83;14.70;;;-1.60;99.90;;;;;;7399955;19;20353;-89
2022/01/12 07:23:17;;;;;;;26.83;16.77;;;-1.50;99.90;;;;;;7398686;19;20324;-89
2022/01/12 07:25:43;;;;;;;26.25;16.83;;;-1.60;99.90;;;;;;7400446;19;20431;-91
2022/01/12 07:28:09;;;;;;;15.87;13.17;;;-1.60;99.90;;;;;;7400092;19;20324;-90
2022/01/12 07:30:35;;;;;;;22.10;14.90;;;-1.50;99.90;;;;;;7400511;19;20353;-90
2022/01/12 07:33:00;;;;;;;20.70;14.38;;;-1.50;99.90;;;;;;7401505;19;20353;-86
2022/01/12 07:35:26;;;;;;;23.47;16.57;;;-1.40;99.90;;;;;;7396086;19;20380;-90
2022/01/12 07:37:52;;;;;;;27.70;19.00;;;-1.40;99.90;;;;;;7399576;19;20406;-92
2022/01/12 07:40:17;;;;;;;22.77;14.80;;;-1.40;99.90;;;;;;7389494;19;20336;-90
2022/01/12 07:42:46;;;;;;;20.63;13.30;;;-1.40;99.90;;;;;;7399145;19;20348;-90
2022/01/12 07:45:13;;;;;;;20.98;14.52;;;-1.40;99.90;;;;;;7404872;19;20345;-88
2022/01/12 07:47:39;;;;;;;21.55;15.10;;;-1.30;99.90;;;;;;7401760;19;20316;-88
2022/01/12 07:50:05;;;;;;;24.65;16.10;;;-1.40;99.90;;;;;;7400263;19;20312;-90
2022/01/12 07:52:31;;;;;;;24.27;15.47;;;-1.40;99.90;;;;;;7389733;19;20344;-86
2022/01/12 07:54:57;;;;;;;22.50;14.27;;;-1.40;99.90;;;;;;7391388;19;20312;-82
2022/01/12 07:57:23;;;;;;;23.70;14.10;;;-1.30;99.90;;;;;;7386292;19;20345;-82
2022/01/12 07:59:49;;;;;;;24.17;16.37;;;-1.30;99.90;;;;;;7388990;19;20914;-79
2022/01/12 08:02:14;;;;;;;24.10;15.07;;;-1.30;99.90;;;;;;7387604;19;20659;-80
2022/01/12 08:04:40;;;;;;;19.57;14.30;;;-1.30;99.90;;;;;;7394284;19;20349;-85
2022/01/12 08:07:07;;;;;;;20.45;14.77;;;-1.20;99.90;;;;;;7392539;19;20301;-82
2022/01/12 08:09:33;;;;;;;21.73;15.60;;;-1.20;99.90;;;;;;7401742;19;20350;-82
2022/01/12 08:11:58;;;;;;;19.50;14.60;;;-1.10;99.90;;;;;;7398676;19;20309;-81
2022/01/12 08:14:24;;;;;;;21.57;16.07;;;-1.20;99.90;;;;;;7403390;19;21062;-83
2022/01/12 08:16:50;;;;;;;22.00;13.48;;;-1.20;99.90;;;;;;7395265;19;20329;-81
2022/01/12 08:19:20;;;;;;;21.20;14.82;;;-1.20;99.90;;;;;;7389969;19;20333;-82
2022/01/12 08:21:46;;;;;;;22.05;15.55;;;-1.20;99.90;;;;;;7390307;19;20332;-86
2022/01/12 08:24:12;;;;;;;16.77;13.30;;;-1.00;99.90;;;;;;7394085;19;20392;-87
2022/01/12 08:26:39;;;;;;;19.83;13.75;;;-1.00;99.90;;;;;;7397248;19;20329;-83
2022/01/12 08:29:05;;;;;;;21.50;15.30;;;-1.00;99.90;;;;;;7389825;19;20301;-82
2022/01/12 08:31:30;;;;;;;21.70;15.77;;;-1.00;99.90;;;;;;7395191;19;20909;-88
2022/01/12 08:33:56;;;;;;;23.65;16.48;;;-1.00;99.90;;;;;;7403967;19;20308;-85
2022/01/12 08:36:22;;;;;;;22.75;15.70;;;-0.90;99.90;;;;;;7393963;19;20344;-86
2022/01/12 08:38:48;;;;;;;19.37;13.47;;;-0.90;99.90;;;;;;7400832;19;20328;-88
2022/01/12 08:41:14;;;;;;;20.33;13.87;;;-0.80;99.90;;;;;;7401654;19;20317;-87
2022/01/12 08:43:40;;;;;;;17.33;13.07;;;-0.70;99.90;;;;;;7400370;19;20432;-80
2022/01/12 08:46:06;;;;;;;19.37;11.47;;;-0.70;99.90;;;;;;7408088;19;20321;-81
2022/01/12 08:48:31;;;;;;;17.37;13.27;;;-0.70;99.90;;;;;;7400235;19;20321;-80
2022/01/12 08:50:57;;;;;;;18.33;12.98;;;-0.60;99.90;;;;;;7395991;19;20436;-85
2022/01/12 08:53:23;;;;;;;20.23;15.23;;;-0.50;99.90;;;;;;7397112;19;20344;-82
2022/01/12 08:55:48;;;;;;;15.87;13.47;;;-0.50;99.90;;;;;;7399807;19;20341;-80
2022/01/12 08:58:14;;;;;;;19.08;13.45;;;-0.40;99.90;;;;;;7396864;19;20321;-82
2022/01/12 09:00:40;;;;;;;19.70;13.73;;;-0.40;99.90;;;;;;7402404;19;20360;-84
2022/01/12 09:03:05;;;;;;;19.95;14.48;;;-0.40;99.90;;;;;;7409525;19;20324;-89
2022/01/12 09:05:31;;;;;;;21.27;16.17;;;-0.40;99.90;;;;;;7405238;19;20638;-86
2022/01/12 09:07:57;;;;;;;19.65;13.63;;;-0.40;99.90;;;;;;7405302;19;20312;-82
2022/01/12 09:10:23;;;;;;;17.83;14.23;;;-0.30;99.90;;;;;;7405262;19;20317;-86
2022/01/12 09:12:49;;;;;;;18.45;13.63;;;-0.30;99.90;;;;;;7400884;19;20297;-83
2022/01/12 09:15:14;;;;;;;17.58;14.13;;;-0.20;99.90;;;;;;7398479;19;20292;-89
2022/01/12 09:17:41;;;;;;;17.73;12.82;;;-0.20;99.90;;;;;;7400006;19;20335;-84
2022/01/12 09:20:07;;;;;;;17.50;13.48;;;-0.20;99.90;;;;;;7410039;19;20351;-80
2022/01/12 09:22:33;;;;;;;19.35;13.00;;;-0.10;99.90;;;;;;7402937;19;20332;-80
2022/01/12 09:24:59;;;;;;;21.08;13.35;;;-0.10;99.90;;;;;;7409683;19;20315;-86
2022/01/12 09:27:25;;;;;;;15.43;12.00;;;0.00;99.90;;;;;;7419227;19;20337;-87
2022/01/12 09:29:50;;;;;;;17.75;12.27;;;0.00;99.90;;;;;;7420549;19;20766;-85
2022/01/12 09:32:16;;;;;;;19.73;13.23;;;0.00;99.90;;;;;;7419182;19;20376;-89
2022/01/12 09:34:42;;;;;;;19.80;13.03;;;0.00;99.90;;;;;;7422990;19;20301;-88
2022/01/12 09:37:12;;;;;;;16.30;12.60;;;0.10;99.90;;;;;;7419778;19;20331;-92
2022/01/12 09:40:14;;;;;;;17.98;13.15;;;0.20;99.90;;;;;;7318702;19;2004059;-83
2022/01/12 09:42:46;;;;;;;19.48;13.77;;;0.20;99.90;;;;;;7421268;19;20341;-89
2022/01/12 09:45:15;;;;;;;18.20;12.70;;;0.20;99.90;;;;;;7320628;19;2004478;-88
2022/01/12 09:47:42;;;;;;;18.83;14.25;;;0.20;99.90;;;;;;7422622;19;20305;-86
2022/01/12 09:50:10;;;;;;;20.63;13.90;;;0.30;99.90;;;;;;7423600;19;20305;-88
2022/01/12 09:52:35;;;;;;;18.50;14.68;;;0.30;99.90;;;;;;7422960;19;20313;-92
2022/01/12 09:55:02;;;;;;;23.07;15.67;;;0.30;99.90;;;;;;7420328;19;20313;-85
2022/01/12 09:57:28;;;;;;;19.95;14.43;;;0.30;99.90;;;;;;7420650;19;20319;-93
2022/01/12 09:59:54;;;;;;;20.65;13.20;;;0.40;99.90;;;;;;7422383;19;20304;-89
2022/01/12 10:02:21;;;;;;;25.70;15.00;;;0.60;99.90;;;;;;7412578;19;20305;-91
2022/01/12 10:04:46;;;;;;;23.65;16.15;;;0.50;99.90;;;;;;7417809;19;20300;-90
2022/01/12 10:07:13;;;;;;;20.30;15.53;;;0.60;99.90;;;;;;7415721;19;20307;-89
2022/01/12 10:09:46;;;;;;;23.08;16.38;;;0.50;99.90;;;;;;7416872;19;20313;-89
2022/01/12 10:12:19;;;;;;;24.58;16.85;;;0.60;99.90;;;;;;7409729;19;20315;-90
2022/01/12 10:14:55;;;;;;;21.58;15.63;;;0.60;99.90;;;;;;7415866;19;20316;-92
2022/01/12 10:17:40;;;;;;;25.08;18.92;;;0.60;99.90;;;;;;7417299;19;20400;-88
2022/01/12 10:20:14;;;;;;;20.95;16.13;;;0.70;99.90;;;;;;7402857;19;21050;-88
2022/01/12 10:22:43;;;;;;;24.42;15.98;;;0.70;99.90;;;;;;7410661;19;20305;-92
2022/01/12 10:25:18;;;;;;;20.35;14.95;;;0.70;99.90;;;;;;7420249;19;20301;-90
2022/01/12 10:27:44;;;;;;;18.73;14.75;;;0.80;99.90;;;;;;7317558;19;2004432;-90
2022/01/12 10:30:18;;;;;;;17.27;13.93;;;0.80;99.90;;;;;;7419407;19;20878;-92
2022/01/12 10:32:44;;;;;;;19.15;14.35;;;0.70;99.90;;;;;;7411054;19;20305;-92
2022/01/12 10:35:10;;;;;;;17.75;14.30;;;0.70;99.90;;;;;;7399367;19;20313;-87
2022/01/12 10:37:36;;;;;;;21.75;14.55;;;0.80;99.90;;;;;;7395069;19;20587;-86
2022/01/12 10:40:02;;;;;;;19.63;14.10;;;0.80;99.90;;;;;;7400096;19;20304;-85
2022/01/12 10:42:28;;;;;;;17.07;13.40;;;0.90;99.90;;;;;;7398451;19;20883;-91
2022/01/12 10:44:57;;;;;;;16.70;13.63;;;1.00;99.90;;;;;;7390862;19;20321;-84
2022/01/12 10:47:27;;;;;;;19.35;13.68;;;1.10;99.90;;;;;;7399517;19;20312;-87
2022/01/12 10:49:55;;;;;;;21.92;15.43;;;1.20;99.90;;;;;;7410830;19;20297;-84
2022/01/12 10:52:24;;;;;;;24.48;15.45;;;1.30;99.90;;;;;;7399241;19;20324;-82
2022/01/12 10:54:57;;;;;;;19.35;13.90;;;1.40;99.90;;;;;;7390764;19;20312;-83
2022/01/12 10:57:37;;;;;;;19.77;15.60;;;1.40;99.90;;;;;;7388130;19;21215;-88
2022/01/12 11:00:19;;;;;;;21.15;15.10;;;1.50;99.90;;;;;;7386081;19;20328;-83
2022/01/12 11:02:53;;;;;;;19.42;13.73;;;1.50;99.90;;;;;;7367907;19;20352;-89
2022/01/12 11:05:20;;;;;;;20.85;15.02;;;1.60;99.90;;;;;;7388336;19;20339;-89
2022/01/12 11:07:46;;;;;;;20.85;14.35;;;1.60;99.90;;;;;;7388496;19;20315;-90
2022/01/12 11:10:11;;;;;;;20.85;15.45;;;1.70;99.90;;;;;;7389310;19;20309;-88
2022/01/12 11:12:38;;;;;;;20.37;15.43;;;1.70;99.90;;;;;;7387580;19;20313;-86
2022/01/12 11:15:08;;;;;;;20.42;14.48;;;1.70;99.90;;;;;;7370719;19;20317;-88
2022/01/12 11:17:34;;;;;;;21.50;14.98;;;1.80;99.90;;;;;;7389638;19;20289;-88
2022/01/12 11:20:19;;;;;;;21.70;15.40;;;1.90;99.90;;;;;;7391173;19;20684;-85
2022/01/12 11:23:02;;;;;;;18.98;13.90;;;1.90;99.90;;;;;;7393904;19;20412;-83
2022/01/12 11:25:33;;;;;;;18.83;13.57;;;2.00;99.90;;;;;;7390550;19;20305;-85
2022/01/12 11:28:13;;;;;;;23.13;14.23;;;2.10;99.90;;;;;;7392676;19;20317;-87
2022/01/12 11:31:03;;;;;;;21.80;14.80;;;2.20;99.90;;;;;;7393768;19;27032;-88
2022/01/12 11:33:31;;;;;;;20.23;14.73;;;2.30;99.90;;;;;;7296006;19;2010770;-88
2022/01/12 11:36:38;;;;;;;19.95;13.95;;;2.60;99.90;;;;;;7395103;19;20940;-91
2022/01/12 11:39:06;;;;;;;20.63;13.82;;;2.50;99.90;;;;;;7299437;19;2004582;-90
2022/01/12 11:41:33;;;;;;;20.88;14.27;;;2.60;99.90;;;;;;7394775;19;20344;-89
2022/01/12 11:44:06;;;;;;;23.17;15.38;;;2.60;99.90;;;;;;7398254;19;20352;-91
2022/01/12 11:46:48;;;;;;;19.63;13.40;;;2.60;99.90;;;;;;7297569;19;2006510;-87
2022/01/12 11:49:44;;;;;;;17.73;13.20;;;2.70;99.90;;;;;;7300040;19;2005843;-88
2022/01/12 11:52:17;;;;;;;16.27;12.95;;;2.80;99.90;;;;;;7300101;19;2004175;-86
2022/01/12 11:54:45;;;;;;;17.00;12.73;;;2.90;99.90;;;;;;7401030;19;20325;-91
2022/01/12 11:57:13;;;;;;;16.38;12.32;;;3.00;99.90;;;;;;7400112;19;20333;-88
2022/01/12 11:59:51;;;;;;;20.20;12.80;;;3.10;99.90;;;;;;7398744;19;20312;-86
2022/01/12 12:02:17;;;;;;;30.33;19.77;;;3.10;99.90;;;;;;7378028;19;20367;-92
2022/01/12 12:04:56;;;;;;;19.45;13.55;;;3.20;99.90;;;;;;7401759;19;20341;-93
2022/01/12 12:07:25;;;;;;;19.70;12.30;;;3.30;99.90;;;;;;7383115;19;20305;-93
2022/01/12 12:09:57;;;;;;;18.73;11.90;;;3.40;99.90;;;;;;7406275;19;20367;-90
2022/01/12 12:12:31;;;;;;;16.60;12.55;;;3.50;99.90;;;;;;7402513;19;20344;-86
2022/01/12 12:15:02;;;;;;;18.83;14.02;;;3.60;99.90;;;;;;7413530;19;20323;-90
2022/01/12 12:17:29;;;;;;;20.50;13.68;;;3.60;99.90;;;;;;7309028;19;2004454;-86
2022/01/12 12:19:55;;;;;;;14.38;10.98;;;3.60;99.90;;;;;;7410979;19;20329;-84
2022/01/12 12:22:25;;;;;;;20.05;11.45;;;3.60;99.90;;;;;;7405962;19;20359;-85
2022/01/12 12:25:07;;;;;;;14.43;11.55;;;3.50;99.90;;;;;;7409067;19;21182;-90
2022/01/12 12:27:33;;;;;;;16.38;11.82;;;3.60;99.90;;;;;;7303472;19;2007469;-83
2022/01/12 12:29:59;;;;;;;13.48;9.93;;;3.60;99.90;;;;;;7408390;19;20993;-88
2022/01/12 12:32:35;;;;;;;14.98;11.10;;;3.70;99.90;;;;;;7404376;19;20324;-89
2022/01/12 12:35:05;;;;;;;14.27;10.10;;;3.70;99.90;;;;;;7409292;19;20367;-88
2022/01/12 12:37:36;;;;;;;13.15;10.73;;;3.70;99.90;;;;;;7408857;19;20357;-90
2022/01/12 12:40:21;;;;;;;13.45;10.02;;;3.80;99.90;;;;;;7403892;19;20304;-91
2022/01/12 12:42:48;;;;;;;11.45;9.25;;;3.70;99.90;;;;;;7304435;19;2005536;-85
2022/01/12 12:45:14;;;;;;;13.88;9.90;;;3.70;99.90;;;;;;7408788;19;20340;-90
2022/01/12 12:47:40;;;;;;;13.30;10.30;;;3.70;99.90;;;;;;7409015;19;20730;-92
2022/01/12 12:50:08;;;;;;;12.93;10.13;;;3.60;99.90;;;;;;7406468;19;20313;-89
2022/01/12 12:52:37;;;;;;;14.07;9.57;;;3.70;99.90;;;;;;7408287;19;20345;-90
2022/01/12 12:55:06;;;;;;;11.77;9.80;;;3.70;99.90;;;;;;7415778;19;20328;-83
2022/01/12 12:57:32;;;;;;;13.43;9.95;;;3.80;99.90;;;;;;7366254;19;20366;-87
2022/01/12 13:00:16;;;;;;;12.43;9.13;;;3.70;99.90;;;;;;7412139;19;20324;-85
2022/01/12 13:02:44;;;;;;;11.10;8.63;;;3.80;99.90;;;;;;7307458;19;2004374;-88
2022/01/12 13:05:20;;;;;;;13.30;10.48;;;3.90;99.90;;;;;;7402713;19;20336;-91
2022/01/12 13:07:46;;;;;;;15.85;10.82;;;3.80;99.90;;;;;;7406983;19;20332;-84
2022/01/12 13:10:26;;;;;;;19.45;12.45;;;3.90;99.90;;;;;;7403594;19;20313;-85
2022/01/12 13:13:00;;;;;;;13.95;10.55;;;3.80;99.90;;;;;;7399482;19;20323;-90
2022/01/12 13:15:30;;;;;;;11.52;8.45;;;3.80;99.90;;;;;;7401315;19;20387;-89
2022/01/12 13:18:10;;;;;;;12.30;9.65;;;3.70;99.90;;;;;;7402399;19;20319;-93
2022/01/12 13:23:32;;;;;;;10.85;9.30;;;3.80;99.90;;;;;;7300140;19;2004460;-86
2022/01/12 13:25:59;;;;;;;13.50;10.07;;;3.80;99.90;;;;;;7398314;19;20321;-86
2022/01/12 13:28:25;;;;;;;12.02;9.05;;;3.80;99.90;;;;;;7401675;19;20381;-86
2022/01/12 13:30:58;;;;;;;10.57;8.50;;;3.70;99.90;;;;;;7395103;19;20345;-87
2022/01/12 13:33:34;;;;;;;10.23;9.03;;;3.70;99.90;;;;;;7397227;19;20348;-95
2022/01/12 13:36:19;;;;;;;11.80;8.93;;;3.70;99.90;;;;;;7397370;19;20328;-88
2022/01/12 13:38:55;;;;;;;14.70;11.02;;;3.70;99.90;;;;;;7401042;19;20316;-83
2022/01/12 13:41:22;;;;;;;14.27;8.77;;;3.70;99.90;;;;;;7406503;19;20340;-85
2022/01/12 13:43:53;;;;;;;12.48;9.05;;;3.70;99.90;;;;;;7384510;19;20309;-88
2022/01/12 13:46:19;;;;;;;12.32;8.68;;;3.80;99.90;;;;;;7407873;19;20312;-88
2022/01/12 13:49:20;;;;;;;11.45;8.65;;;3.60;99.90;;;;;;7406957;19;20309;-89
2022/01/12 13:52:03;;;;;;;11.40;8.18;;;3.60;99.90;;;;;;7285723;19;2004573;-87
2022/01/12 13:54:30;;;;;;;9.65;7.82;;;3.60;99.90;;;;;;7400327;19;20358;-89
2022/01/12 13:56:56;;;;;;;10.30;8.60;;;3.60;99.90;;;;;;7398611;19;20317;-87
2022/01/12 13:59:25;;;;;;;11.07;9.23;;;3.50;99.90;;;;;;7399395;19;20317;-82
2022/01/12 14:01:50;;;;;;;15.43;10.25;;;3.50;99.90;;;;;;7400028;19;20691;-82
2022/01/12 14:04:35;;;;;;;14.82;9.98;;;3.50;99.90;;;;;;7399237;19;20320;-86
2022/01/12 14:07:03;;;;;;;10.55;8.52;;;3.50;99.90;;;;;;7398730;19;20333;-85
2022/01/12 14:09:33;;;;;;;14.18;8.35;;;3.50;99.90;;;;;;7399860;19;20331;-85
2022/01/12 14:12:15;;;;;;;10.25;8.65;;;3.50;99.90;;;;;;7400110;19;20328;-86
2022/01/12 14:14:48;;;;;;;9.40;8.40;;;3.50;99.90;;;;;;7296406;19;2004300;-81
2022/01/12 14:17:36;;;;;;;8.40;7.22;;;3.50;99.90;;;;;;7402842;19;20333;-88
2022/01/12 14:20:22;;;;;;;12.93;8.80;;;3.50;99.90;;;;;;7298715;19;2004335;-86
2022/01/12 14:22:56;;;;;;;13.93;8.65;;;3.40;99.90;;;;;;7403557;19;20364;-89
2022/01/12 14:25:47;;;;;;;10.40;8.30;;;3.40;99.90;;;;;;7399094;19;20333;-87
2022/01/12 14:28:15;;;;;;;14.53;9.23;;;3.40;99.90;;;;;;7300511;19;2004362;-90
2022/01/12 14:30:42;;;;;;;11.60;8.48;;;3.30;99.90;;;;;;7401764;19;20352;-84
2022/01/12 14:33:09;;;;;;;8.75;7.82;;;3.30;99.90;;;;;;7397298;19;20332;-86
2022/01/12 14:35:35;;;;;;;9.30;7.68;;;3.30;99.90;;;;;;7402849;19;20315;-91
2022/01/12 14:38:02;;;;;;;11.60;8.50;;;3.20;99.90;;;;;;7403364;19;20412;-88
2022/01/12 14:40:28;;;;;;;12.02;8.38;;;3.20;99.90;;;;;;7397504;19;20328;-86
2022/01/12 14:42:59;;;;;;;11.23;8.65;;;3.20;99.90;;;;;;7395735;19;20308;-90
2022/01/12 14:45:30;;;;;;;14.00;10.30;;;3.20;99.90;;;;;;7397986;19;20917;-86
2022/01/12 14:47:59;;;;;;;11.10;9.13;;;3.10;99.90;;;;;;7406474;19;20376;-92
2022/01/12 14:53:17;;;;;;;14.65;9.50;;;3.10;99.90;;;;;;7378394;19;20332;-82
2022/01/12 14:55:44;;;;;;;12.48;8.82;;;3.10;99.90;;;;;;7378071;19;20320;-77
2022/01/12 14:58:12;;;;;;;11.88;8.27;;;3.10;99.90;;;;;;7385521;19;20368;-81
2022/01/12 15:00:39;;;;;;;11.48;8.68;;;3.10;99.90;;;;;;7384600;19;20322;-86
2022/01/12 15:03:06;;;;;;;11.10;8.82;;;3.10;99.90;;;;;;7376501;19;20895;-89
2022/01/12 15:05:36;;;;;;;12.13;8.50;;;3.00;99.90;;;;;;7390702;19;20320;-78
2022/01/12 15:08:03;;;;;;;11.85;8.55;;;3.00;99.90;;;;;;7383292;19;21448;-79
2022/01/12 15:10:30;;;;;;;12.75;8.90;;;3.00;99.90;;;;;;7373721;19;20376;-83
2022/01/12 15:13:03;;;;;;;11.38;9.07;;;3.20;99.90;;;;;;7381599;19;20331;-79
2022/01/12 15:15:32;;;;;;;9.70;8.18;;;3.00;99.90;;;;;;7268166;19;2004471;-80
2022/01/12 15:17:59;;;;;;;12.02;9.35;;;3.00;99.90;;;;;;7342866;19;20320;-85
2022/01/12 15:20:28;;;;;;;13.07;9.43;;;3.00;99.90;;;;;;7252269;19;20337;-81
2022/01/12 15:22:56;;;;;;;11.02;8.70;;;3.00;99.90;;;;;;7348443;19;20333;-82
2022/01/12 15:25:24;;;;;;;13.43;10.35;;;3.00;99.90;;;;;;7381613;19;20337;-80
2022/01/12 15:27:50;;;;;;;12.32;9.68;;;3.00;99.90;;;;;;7379494;19;20303;-84
2022/01/12 15:30:17;;;;;;;13.18;9.65;;;3.00;99.90;;;;;;7379814;19;20368;-81
2022/01/12 15:32:44;;;;;;;11.40;9.27;;;3.00;99.90;;;;;;7374805;19;20396;-78
2022/01/12 15:35:12;;;;;;;14.63;10.13;;;3.00;99.90;;;;;;7366478;19;20327;-77
2022/01/12 15:37:38;;;;;;;13.18;9.38;;;2.90;99.90;;;;;;7382682;19;20402;-78
2022/01/12 15:40:06;;;;;;;15.18;9.88;;;2.90;99.90;;;;;;7369144;19;20319;-84
2022/01/12 15:42:32;;;;;;;14.63;10.15;;;2.80;99.90;;;;;;7371462;19;20320;-78
2022/01/12 15:44:59;;;;;;;15.30;10.25;;;2.80;99.90;;;;;;7370841;19;20869;-78
2022/01/12 15:47:25;;;;;;;13.87;10.33;;;2.70;99.90;;;;;;7386646;19;20342;-80
2022/01/12 15:49:53;;;;;;;15.43;11.83;;;2.70;99.90;;;;;;7382832;19;20320;-78
2022/01/12 15:52:19;;;;;;;15.65;10.95;;;2.80;99.90;;;;;;7382532;19;20664;-80
2022/01/12 15:54:46;;;;;;;15.60;11.18;;;2.70;99.90;;;;;;7384951;19;20349;-78
2022/01/12 15:57:15;;;;;;;14.80;11.15;;;2.70;99.90;;;;;;7381371;19;21275;-77
2022/01/12 15:59:42;;;;;;;14.00;10.82;;;2.70;99.90;;;;;;7383187;19;20343;-83
2022/01/12 16:02:12;;;;;;;15.35;11.23;;;2.60;99.90;;;;;;7360686;19;20316;-79
2022/01/12 16:04:38;;;;;;;15.80;11.40;;;2.60;99.90;;;;;;7384649;19;20395;-84
2022/01/12 16:07:07;;;;;;;14.13;10.80;;;2.70;99.90;;;;;;7394153;19;20328;-85
2022/01/12 16:09:35;;;;;;;17.33;11.98;;;2.70;99.90;;;;;;7286842;19;2004282;-81
2022/01/12 16:12:06;;;;;;;14.23;10.93;;;2.60;99.90;;;;;;7365981;19;20364;-86
2022/01/12 16:14:33;;;;;;;18.13;12.48;;;2.60;99.90;;;;;;7384354;19;20329;-86
2022/01/12 16:17:14;;;;;;;18.20;11.95;;;2.70;99.90;;;;;;7231921;19;2004500;-83
2022/01/12 16:20:00;;;;;;;18.75;12.63;;;2.60;99.90;;;;;;7255379;19;2004324;-85
2022/01/12 16:22:42;;;;;;;15.90;12.15;;;2.60;99.90;;;;;;7285859;19;20439;-88
2022/01/12 16:25:26;;;;;;;18.55;12.07;;;2.60;99.90;;;;;;7369534;19;20316;-84
2022/01/12 16:28:10;;;;;;;17.77;12.23;;;2.50;99.90;;;;;;7252238;19;20416;-85
2022/01/12 16:31:10;;;;;;;15.73;11.77;;;2.50;99.90;;;;;;7216811;19;2004524;-83
2022/01/12 16:34:08;;;;;;;13.90;11.35;;;2.50;99.90;;;;;;7244878;19;2004911;-86
2022/01/12 16:37:00;;;;;;;17.97;12.27;;;2.50;99.90;;;;;;7334884;19;20316;-81
2022/01/12 16:39:27;;;;;;;17.77;12.50;;;2.50;99.90;;;;;;7386960;19;20358;-82
2022/01/12 16:41:53;;;;;;;19.35;12.57;;;2.50;99.90;;;;;;7381039;19;20328;-77
2022/01/12 16:44:21;;;;;;;17.20;12.38;;;2.50;99.90;;;;;;7383935;19;20313;-79
2022/01/12 16:46:49;;;;;;;18.67;12.98;;;2.50;99.90;;;;;;7367588;19;20317;-78
2022/01/12 16:49:16;;;;;;;19.60;12.63;;;2.50;99.90;;;;;;7376805;19;20316;-82
2022/01/12 16:51:42;;;;;;;16.35;12.50;;;2.50;99.90;;;;;;7382374;19;20332;-80
2022/01/12 16:54:09;;;;;;;22.83;14.38;;;2.50;99.90;;;;;;7379585;19;20333;-78
2022/01/12 16:56:35;;;;;;;18.13;13.53;;;2.40;99.90;;;;;;7381080;19;20377;-79
2022/01/12 16:59:01;;;;;;;20.02;13.70;;;2.50;99.90;;;;;;7378709;19;20399;-79
2022/01/12 17:01:27;;;;;;;22.20;14.35;;;2.40;99.90;;;;;;7365749;19;20340;-81
2022/01/12 17:03:54;;;;;;;22.95;14.45;;;2.40;99.90;;;;;;7379610;19;20336;-78
2022/01/12 17:06:20;;;;;;;20.95;13.77;;;2.30;99.90;;;;;;7377594;19;20325;-85
2022/01/12 17:08:47;;;;;;;25.50;14.35;;;2.30;99.90;;;;;;7375631;19;20457;-81
2022/01/12 17:11:16;;;;;;;20.65;14.52;;;2.40;99.90;;;;;;7381656;19;20408;-79
2022/01/12 17:13:43;;;;;;;19.30;14.25;;;2.40;99.90;;;;;;7382628;19;20312;-81
2022/01/12 17:16:18;;;;;;;24.67;15.15;;;2.40;99.90;;;;;;7382044;19;20320;-81
2022/01/12 17:18:54;;;;;;;29.58;22.73;;;2.30;99.90;;;;;;7373047;19;20850;-80
2022/01/12 17:21:21;;;;;;;22.77;15.10;;;2.40;99.90;;;;;;7377004;19;20955;-84
2022/01/12 17:23:50;;;;;;;23.25;15.50;;;2.50;99.90;;;;;;7378599;19;20360;-78
2022/01/12 17:26:45;;;;;;;26.07;15.77;;;2.40;99.90;;;;;;7381503;19;20343;-83
2022/01/12 17:29:18;;;;;;;23.63;15.57;;;2.40;99.90;;;;;;7277204;19;2004350;-84
2022/01/12 17:31:48;;;;;;;20.73;14.77;;;2.40;99.90;;;;;;7376570;19;20317;-79
2022/01/12 17:34:17;;;;;;;23.42;15.15;;;2.40;99.90;;;;;;7381380;19;20861;-77
2022/01/12 17:36:51;;;;;;;27.60;17.13;;;2.40;99.90;;;;;;7377975;19;20410;-80
2022/01/12 17:39:20;;;;;;;24.65;16.05;;;2.30;99.90;;;;;;7380651;19;20325;-79
2022/01/12 17:41:50;;;;;;;19.53;15.50;;;2.40;99.90;;;;;;7375972;19;20350;-79
2022/01/12 17:44:17;;;;;;;30.23;17.52;;;2.40;99.90;;;;;;7374764;19;20344;-77
2022/01/12 17:46:45;;;;;;;25.23;17.33;;;2.40;99.90;;;;;;7381605;19;20312;-81
2022/01/12 17:49:15;;;;;;;19.70;14.52;;;2.40;99.90;;;;;;7378720;19;20321;-79
2022/01/12 17:51:41;;;;;;;28.70;17.42;;;2.40;99.90;;;;;;7378091;19;20673;-78
2022/01/12 17:54:08;;;;;;;20.63;15.23;;;2.40;99.90;;;;;;7377918;19;20331;-79
2022/01/12 17:56:34;;;;;;;28.25;16.20;;;2.40;99.90;;;;;;7377969;19;20353;-79
2022/01/12 17:59:00;;;;;;;26.55;16.42;;;2.40;99.90;;;;;;7377872;19;20312;-78
2022/01/12 18:01:27;;;;;;;24.25;16.20;;;2.40;99.90;;;;;;7379748;19;20325;-81
2022/01/12 18:03:53;;;;;;;24.35;16.85;;;2.40;99.90;;;;;;7386466;19;20341;-83
2022/01/12 18:06:21;;;;;;;24.93;19.10;;;2.40;99.90;;;;;;7384062;19;20948;-80
2022/01/12 18:08:47;;;;;;;26.02;19.13;;;2.40;99.90;;;;;;7381845;19;20340;-81
2022/01/12 18:11:16;;;;;;;27.05;17.45;;;2.40;99.90;;;;;;7378393;19;20383;-79
2022/01/12 18:13:47;;;;;;;24.02;15.32;;;2.40;99.90;;;;;;7361729;19;20320;-79
2022/01/12 18:16:21;;;;;;;21.90;15.48;;;2.40;99.90;;;;;;7381679;19;20320;-83
2022/01/12 18:19:09;;;;;;;23.83;14.20;;;2.50;99.90;;;;;;7281633;19;2004446;-85
2022/01/12 18:21:35;;;;;;;22.87;14.83;;;2.40;99.90;;;;;;7258385;19;2004445;-80
2022/01/12 18:24:01;;;;;;;23.13;14.15;;;2.40;99.90;;;;;;7380032;19;20382;-78
2022/01/12 18:26:27;;;;;;;25.17;16.15;;;2.30;99.90;;;;;;7380933;19;20349;-80
2022/01/12 18:28:53;;;;;;;21.47;14.43;;;2.40;99.90;;;;;;7378235;19;20416;-79
2022/01/12 18:31:19;;;;;;;19.25;13.90;;;2.40;99.90;;;;;;7371636;19;20329;-79
2022/01/12 18:33:45;;;;;;;20.95;13.40;;;2.40;99.90;;;;;;7382414;19;20348;-79
2022/01/12 18:37:01;;;;;;;15.73;12.40;;;2.40;99.90;;;;;;7366928;19;20877;-84
2022/01/12 18:40:48;;;;;;;16.00;11.23;;;2.40;99.90;;;;;;7408654;19;20340;-88
2022/01/12 18:43:48;;;;;;;17.97;12.17;;;2.40;99.90;;;;;;7366535;19;20325;-80
2022/01/12 18:46:27;;;;;;;16.67;11.87;;;2.40;99.90;;;;;;7371346;19;20319;-87
2022/01/12 18:49:11;;;;;;;17.95;12.00;;;2.40;99.90;;;;;;7303929;19;20356;-85
2022/01/12 18:51:53;;;;;;;16.00;11.05;;;2.40;99.90;;;;;;7365744;19;20319;-83
2022/01/12 18:54:54;;;;;;;19.13;12.48;;;2.40;99.90;;;;;;7375079;19;20278;-80
2022/01/12 18:57:25;;;;;;;18.30;12.15;;;2.40;99.90;;;;;;7353841;19;20357;-81
2022/01/12 18:59:53;;;;;;;16.52;11.23;;;2.40;99.90;;;;;;7377299;19;20441;-80
2022/01/12 19:02:33;;;;;;;18.10;11.45;;;2.30;99.90;;;;;;7364902;19;20359;-83
2022/01/12 19:05:10;;;;;;;13.75;10.77;;;2.30;99.90;;;;;;7334568;19;20331;-80
2022/01/12 19:08:03;;;;;;;13.77;10.70;;;2.40;99.90;;;;;;7233701;19;2004263;-80
2022/01/12 19:10:38;;;;;;;14.77;10.20;;;2.40;99.90;;;;;;7359570;19;20351;-85
2022/01/12 19:13:12;;;;;;;13.70;10.48;;;2.30;99.90;;;;;;7331237;19;20316;-81
2022/01/12 19:15:41;;;;;;;15.57;10.98;;;2.40;99.90;;;;;;7351042;19;20412;-84
2022/01/12 19:18:27;;;;;;;14.60;11.30;;;2.40;99.90;;;;;;7378033;19;20735;-82
2022/01/12 19:21:18;;;;;;;15.00;10.80;;;2.40;99.90;;;;;;7261556;19;2004352;-86
2022/01/12 19:23:47;;;;;;;15.50;11.10;;;2.40;99.90;;;;;;7349753;19;20352;-78
2022/01/12 19:26:15;;;;;;;14.43;11.38;;;2.40;99.90;;;;;;7382130;19;20405;-84
2022/01/12 19:28:52;;;;;;;14.57;11.63;;;2.30;99.90;;;;;;7360336;19;20720;-81
2022/01/12 19:31:59;;;;;;;17.15;12.20;;;2.30;99.90;;;;;;7338833;19;20404;-87
2022/01/12 19:34:34;;;;;;;16.40;12.60;;;2.30;99.90;;;;;;7364467;19;20369;-85
2022/01/12 19:37:06;;;;;;;20.42;14.25;;;2.20;99.90;;;;;;7376183;19;20374;-78
2022/01/12 19:39:33;;;;;;;18.13;14.15;;;2.20;99.90;;;;;;7349043;19;20891;-81
2022/01/12 19:42:02;;;;;;;18.55;13.45;;;2.10;99.90;;;;;;7360155;19;20317;-78
2022/01/12 19:44:33;;;;;;;18.70;13.40;;;2.10;99.90;;;;;;7364448;19;20341;-79
2022/01/12 19:47:07;;;;;;;19.35;14.05;;;2.10;99.90;;;;;;7362852;19;20324;-84